createdAt,value
2024-04-06T00:00:52.918Z,13.72
2024-04-06T00:01:52.918Z,13.75
2024-04-06T00:02:52.921Z,13.75
2024-04-06T00:03:53.907Z,13.72
2024-04-06T00:04:52.906Z,13.68
2024-04-06T00:05:52.878Z,13.65
2024-04-06T00:06:52.876Z,13.61
2024-04-06T00:07:59.657Z,13.60
2024-04-06T00:08:52.851Z,13.58
2024-04-06T00:09:52.856Z,13.57
2024-04-06T00:10:52.858Z,13.55
2024-04-06T00:11:52.816Z,13.55
2024-04-06T00:12:52.819Z,13.56
2024-04-06T00:13:52.818Z,13.57
2024-04-06T00:14:52.782Z,13.58
2024-04-06T00:15:52.800Z,13.60
2024-04-06T00:16:52.803Z,13.62
2024-04-06T00:17:52.809Z,13.66
2024-04-06T00:18:52.732Z,13.68
2024-04-06T00:19:52.714Z,13.69
2024-04-06T00:20:52.727Z,13.67
2024-04-06T00:21:52.704Z,13.65
2024-04-06T00:22:52.677Z,13.63
2024-04-06T00:23:52.695Z,13.61
2024-04-06T00:24:52.641Z,13.62
2024-04-06T00:25:52.639Z,13.62
2024-04-06T00:26:52.629Z,13.62
2024-04-06T00:27:52.613Z,13.61
2024-04-06T00:28:52.609Z,13.58
2024-04-06T00:29:52.634Z,13.55
2024-04-06T00:30:52.603Z,13.53
2024-04-06T00:31:52.573Z,13.51
2024-04-06T00:32:52.591Z,13.52
2024-04-06T00:33:52.555Z,13.53
2024-04-06T00:34:52.632Z,13.54
2024-04-06T00:35:52.590Z,13.54
2024-04-06T00:36:52.539Z,13.54
2024-04-06T00:37:52.514Z,13.55
2024-04-06T00:38:52.517Z,13.57
2024-04-06T00:39:52.489Z,13.60
2024-04-06T00:40:52.490Z,13.61
2024-04-06T00:41:52.516Z,13.63
2024-04-06T00:42:52.519Z,13.65
2024-04-06T00:43:52.477Z,13.66
2024-04-06T00:44:52.441Z,13.67
2024-04-06T00:45:52.425Z,13.66
2024-04-06T00:46:52.424Z,13.64
2024-04-06T00:47:52.417Z,13.63
2024-04-06T00:48:52.441Z,13.62
2024-04-06T00:49:52.401Z,13.61
2024-04-06T00:50:52.370Z,13.61
2024-04-06T00:51:52.377Z,13.61
2024-04-06T00:52:52.382Z,13.60
2024-04-06T00:55:19.763Z,13.59
2024-04-06T00:55:25.638Z,13.58
2024-04-06T00:56:25.657Z,13.55
2024-04-06T00:57:25.608Z,13.51
2024-04-06T00:58:25.610Z,13.46
2024-04-06T00:59:25.636Z,13.43
2024-04-06T01:00:25.639Z,13.41
2024-04-06T01:01:25.582Z,13.39
2024-04-06T01:02:25.613Z,13.36
2024-04-06T01:03:25.544Z,13.33
2024-04-06T01:04:25.548Z,13.30
2024-04-06T01:05:25.512Z,13.29
2024-04-06T01:06:25.545Z,13.30
2024-04-06T01:07:25.537Z,13.33
2024-04-06T01:08:25.530Z,13.35
2024-04-06T01:09:25.494Z,13.35
2024-04-06T01:10:25.484Z,13.34
2024-04-06T01:11:25.477Z,13.31
2024-04-06T01:12:25.518Z,13.29
2024-04-06T01:13:25.446Z,13.27
2024-04-06T01:14:25.447Z,13.26
2024-04-06T01:15:25.407Z,13.25
2024-04-06T01:16:25.418Z,13.25
2024-04-06T01:17:25.405Z,13.27
2024-04-06T01:18:25.429Z,13.29
2024-04-06T01:19:25.431Z,13.31
2024-04-06T01:20:25.378Z,13.32
2024-04-06T01:21:25.366Z,13.32
2024-04-06T01:22:25.324Z,13.31
2024-04-06T01:23:25.337Z,13.32
2024-04-06T01:24:25.329Z,13.33
2024-04-06T01:25:25.390Z,13.34
2024-04-06T01:26:25.335Z,13.37
2024-04-06T01:27:25.292Z,13.40
2024-04-06T01:28:25.286Z,13.43
2024-04-06T01:29:25.296Z,13.44
2024-04-06T01:30:25.271Z,13.45
2024-04-06T01:31:25.281Z,13.46
2024-04-06T01:32:25.260Z,13.50
2024-04-06T01:33:25.231Z,13.55
2024-04-06T01:34:25.231Z,13.63
2024-04-06T01:35:25.216Z,13.70
2024-04-06T01:36:25.195Z,13.77
2024-04-06T01:37:25.252Z,13.86
2024-04-06T01:38:25.190Z,13.96
2024-04-06T01:39:25.163Z,14.04
2024-04-06T01:40:25.154Z,14.08
2024-04-06T01:41:25.192Z,14.09
2024-04-06T01:42:25.132Z,14.06
2024-04-06T01:43:25.165Z,14.02
2024-04-06T01:44:25.145Z,13.95
2024-04-06T01:45:25.098Z,13.86
2024-04-06T01:46:25.087Z,13.77
2024-04-06T01:47:25.121Z,13.68
2024-04-06T01:48:25.052Z,13.60
2024-04-06T01:49:25.097Z,13.53
2024-04-06T01:50:25.120Z,13.48
2024-04-06T01:51:25.032Z,13.44
2024-04-06T01:52:25.036Z,13.40
2024-04-06T01:53:25.052Z,13.39
2024-04-06T01:54:24.991Z,13.37
2024-04-06T01:55:24.983Z,13.37
2024-04-06T01:56:25.001Z,13.37
2024-04-06T01:57:24.958Z,13.39
2024-04-06T01:58:24.959Z,13.43
2024-04-06T01:59:24.979Z,13.46
2024-04-06T02:00:24.920Z,13.48
2024-04-06T02:01:24.916Z,13.51
2024-04-06T02:02:24.916Z,13.57
2024-04-06T02:03:24.870Z,13.61
2024-04-06T02:04:24.875Z,13.63
2024-04-06T02:05:24.927Z,13.62
2024-04-06T02:06:24.861Z,13.60
2024-04-06T02:07:24.836Z,13.57
2024-04-06T02:08:24.858Z,13.56
2024-04-06T02:09:24.839Z,13.56
2024-04-06T02:10:24.851Z,13.57
2024-04-06T02:11:24.834Z,13.58
2024-04-06T02:12:24.801Z,13.60
2024-04-06T02:13:24.788Z,13.62
2024-04-06T02:14:24.777Z,13.63
2024-04-06T02:15:24.765Z,13.63
2024-04-06T02:16:24.802Z,13.63
2024-04-06T02:17:24.771Z,13.61
2024-04-06T02:18:24.741Z,13.57
2024-04-06T02:19:24.721Z,13.53
2024-04-06T02:20:24.772Z,13.48
2024-04-06T02:21:24.711Z,13.43
2024-04-06T02:22:24.726Z,13.37
2024-04-06T02:23:24.796Z,13.32
2024-04-06T02:24:24.663Z,13.27
2024-04-06T02:25:24.657Z,13.23
2024-04-06T02:26:24.683Z,13.22
2024-04-06T02:27:24.631Z,13.26
2024-04-06T02:28:24.627Z,13.37
2024-04-06T02:29:24.695Z,13.55
2024-04-06T02:30:24.607Z,13.74
2024-04-06T02:31:24.613Z,13.91
2024-04-06T02:32:24.621Z,14.06
2024-04-06T02:33:24.571Z,14.18
2024-04-06T02:34:24.547Z,14.26
2024-04-06T02:35:24.567Z,14.29
2024-04-06T02:36:24.551Z,14.30
2024-04-06T02:37:24.512Z,14.30
2024-04-06T02:38:24.522Z,14.30
2024-04-06T02:39:24.504Z,14.29
2024-04-06T02:40:24.514Z,14.27
2024-04-06T02:41:24.515Z,14.25
2024-04-06T02:42:24.497Z,14.22
2024-04-06T02:43:24.467Z,14.18
2024-04-06T02:44:24.477Z,14.14
2024-04-06T02:45:24.446Z,14.08
2024-04-06T02:46:24.398Z,14.02
2024-04-06T02:47:24.429Z,13.93
2024-04-06T02:48:24.453Z,13.80
2024-04-06T02:49:24.401Z,13.69
2024-04-06T02:50:24.389Z,13.58
2024-04-06T02:51:24.368Z,13.52
2024-04-06T02:52:24.370Z,13.51
2024-04-06T02:53:24.466Z,13.51
2024-04-06T02:54:24.352Z,13.52
2024-04-06T02:55:24.332Z,13.52
2024-04-06T02:56:24.356Z,13.49
2024-04-06T02:57:24.322Z,13.44
2024-04-06T02:58:24.301Z,13.37
2024-04-06T02:59:24.349Z,13.31
2024-04-06T03:00:24.251Z,13.27
2024-04-06T03:01:24.257Z,13.27
2024-04-06T03:02:24.331Z,13.30
2024-04-06T03:03:24.270Z,13.33
2024-04-06T03:04:24.266Z,13.36
2024-04-06T03:05:24.243Z,13.37
2024-04-06T03:06:24.208Z,13.37
2024-04-06T03:07:24.206Z,13.36
2024-04-06T03:08:24.200Z,13.33
2024-04-06T03:09:24.199Z,13.30
2024-04-06T03:10:24.206Z,13.25
2024-04-06T03:11:24.165Z,13.19
2024-04-06T03:12:24.154Z,13.14
2024-04-06T03:13:24.126Z,13.08
2024-04-06T03:14:24.129Z,13.02
2024-04-06T03:15:24.116Z,12.96
2024-04-06T03:16:24.154Z,12.91
2024-04-06T03:17:24.130Z,12.89
2024-04-06T03:18:24.097Z,12.90
2024-04-06T03:19:24.062Z,12.93
2024-04-06T03:20:24.070Z,12.96
2024-04-06T03:21:24.055Z,12.99
2024-04-06T03:22:24.043Z,13.02
2024-04-06T03:23:24.096Z,13.05
2024-04-06T03:24:24.023Z,13.08
2024-04-06T03:25:24.023Z,13.12
2024-04-06T03:26:23.995Z,13.15
2024-04-06T03:27:23.964Z,13.18
2024-04-06T03:28:23.980Z,13.18
2024-04-06T03:29:24.000Z,13.16
2024-04-06T03:30:23.983Z,13.13
2024-04-06T03:31:23.955Z,13.10
2024-04-06T03:32:23.966Z,13.09
2024-04-06T03:33:23.936Z,13.08
2024-04-06T03:34:23.927Z,13.07
2024-04-06T03:35:23.927Z,13.06
2024-04-06T03:36:26.026Z,13.03
2024-04-06T03:37:23.895Z,13.02
2024-04-06T03:38:23.910Z,13.01
2024-04-06T03:39:23.868Z,13.03
2024-04-06T03:40:23.863Z,13.05
2024-04-06T03:41:23.840Z,13.07
2024-04-06T03:42:23.826Z,13.10
2024-04-06T03:43:23.808Z,13.12
2024-04-06T03:44:23.863Z,13.12
2024-04-06T03:45:23.804Z,13.12
2024-04-06T03:46:23.764Z,13.10
2024-04-06T03:47:23.806Z,13.08
2024-04-06T03:48:23.762Z,13.05
2024-04-06T03:49:23.782Z,13.03
2024-04-06T03:50:23.758Z,13.03
2024-04-06T03:51:23.731Z,13.02
2024-04-06T03:52:23.706Z,13.02
2024-04-06T03:53:23.711Z,13.01
2024-04-06T03:54:23.720Z,13.01
2024-04-06T03:55:23.688Z,12.99
2024-04-06T03:56:23.665Z,12.95
2024-04-06T03:57:23.672Z,12.92
2024-04-06T03:58:23.645Z,12.87
2024-04-06T03:59:23.643Z,12.84
2024-04-06T04:00:23.650Z,12.81
2024-04-06T04:01:23.611Z,12.79
2024-04-06T04:02:23.605Z,12.78
2024-04-06T04:03:23.590Z,12.78
2024-04-06T04:04:23.584Z,12.79
2024-04-06T04:05:23.578Z,12.81
2024-04-06T04:06:23.616Z,12.82
2024-04-06T04:07:23.552Z,12.83
2024-04-06T04:08:23.563Z,12.83
2024-04-06T04:09:23.548Z,12.82
2024-04-06T04:10:23.519Z,12.80
2024-04-06T04:11:23.525Z,12.77
2024-04-06T04:12:23.555Z,12.74
2024-04-06T04:13:23.488Z,12.70
2024-04-06T04:14:23.476Z,12.66
2024-04-06T04:15:23.469Z,12.64
2024-04-06T04:16:23.459Z,12.64
2024-04-06T04:17:23.441Z,12.66
2024-04-06T04:18:23.435Z,12.70
2024-04-06T04:19:23.436Z,12.75
2024-04-06T04:20:23.416Z,12.81
2024-04-06T04:21:23.402Z,12.86
2024-04-06T04:22:24.548Z,12.88
2024-04-06T04:23:23.381Z,12.89
2024-04-06T04:24:23.385Z,12.90
2024-04-06T04:25:23.357Z,12.92
2024-04-06T04:26:23.355Z,12.93
2024-04-06T04:27:23.323Z,12.92
2024-04-06T04:28:23.326Z,12.91
2024-04-06T04:29:23.327Z,12.89
2024-04-06T04:30:23.306Z,12.86
2024-04-06T04:31:23.303Z,12.82
2024-04-06T04:32:23.263Z,12.77
2024-04-06T04:33:23.262Z,12.73
2024-04-06T04:34:23.287Z,12.69
2024-04-06T04:35:23.251Z,12.66
2024-04-06T04:36:23.254Z,12.67
2024-04-06T04:37:23.216Z,12.68
2024-04-06T04:38:23.219Z,12.70
2024-04-06T04:39:23.206Z,12.72
2024-04-06T04:40:23.213Z,12.75
2024-04-06T04:41:23.195Z,12.77
2024-04-06T04:42:23.175Z,12.79
2024-04-06T04:43:23.164Z,12.80
2024-04-06T04:44:35.855Z,12.80
2024-04-06T04:45:23.137Z,12.78
2024-04-06T04:46:23.132Z,12.76
2024-04-06T04:47:23.117Z,12.73
2024-04-06T04:48:23.078Z,12.70
2024-04-06T04:49:23.099Z,12.67
2024-04-06T04:50:23.077Z,12.64
2024-04-06T04:51:23.114Z,12.61
2024-04-06T04:52:23.071Z,12.59
2024-04-06T04:53:23.051Z,12.57
2024-04-06T04:54:23.038Z,12.54
2024-04-06T04:55:24.915Z,12.52
2024-04-06T04:56:23.015Z,12.50
2024-04-06T04:57:23.036Z,12.49
2024-04-06T04:58:22.999Z,12.47
2024-04-06T04:59:22.983Z,12.44
2024-04-06T05:00:22.971Z,12.42
2024-04-06T05:01:22.968Z,12.40
2024-04-06T05:02:22.952Z,12.39
2024-04-06T05:03:22.982Z,12.39
2024-04-06T05:04:22.928Z,12.41
2024-04-06T05:05:22.913Z,12.44
2024-04-06T05:06:22.907Z,12.47
2024-04-06T05:07:22.940Z,12.50
2024-04-06T05:08:22.877Z,12.53
2024-04-06T05:09:22.904Z,12.55
2024-04-06T05:10:22.866Z,12.56
2024-04-06T05:11:22.852Z,12.56
2024-04-06T05:12:22.844Z,12.57
2024-04-06T05:13:22.856Z,12.57
2024-04-06T05:14:22.817Z,12.58
2024-04-06T05:15:22.797Z,12.59
2024-04-06T05:16:22.808Z,12.60
2024-04-06T05:17:22.783Z,12.62
2024-04-06T05:18:22.825Z,12.63
2024-04-06T05:19:22.755Z,12.62
2024-04-06T05:20:22.761Z,12.60
2024-04-06T05:21:22.744Z,12.58
2024-04-06T05:22:22.743Z,12.56
2024-04-06T05:23:22.721Z,12.54
2024-04-06T05:24:22.722Z,12.54
2024-04-06T05:25:22.690Z,12.53
2024-04-06T05:26:22.696Z,12.53
2024-04-06T05:27:22.679Z,12.55
2024-04-06T05:28:22.663Z,12.59
2024-04-06T05:29:22.664Z,12.65
2024-04-06T05:30:22.685Z,12.73
2024-04-06T05:31:22.641Z,12.82
2024-04-06T05:32:22.622Z,12.91
2024-04-06T05:33:22.612Z,13.01
2024-04-06T05:34:22.602Z,13.09
2024-04-06T05:35:22.594Z,13.17
2024-04-06T05:36:22.600Z,13.24
2024-04-06T05:37:22.559Z,13.29
2024-04-06T05:38:22.557Z,13.33
2024-04-06T05:39:22.548Z,13.37
2024-04-06T05:40:22.564Z,13.40
2024-04-06T05:41:22.563Z,13.43
2024-04-06T05:42:22.514Z,13.44
2024-04-06T05:43:22.504Z,13.44
2024-04-06T05:44:22.498Z,13.43
2024-04-06T05:45:22.483Z,13.42
2024-04-06T05:46:22.533Z,13.41
2024-04-06T05:47:22.486Z,13.41
2024-04-06T05:48:22.483Z,13.41
2024-04-06T05:49:22.444Z,13.42
2024-04-06T05:50:22.435Z,13.44
2024-04-06T05:51:22.411Z,13.47
2024-04-06T05:52:22.453Z,13.48
2024-04-06T05:53:22.405Z,13.45
2024-04-06T05:54:22.378Z,13.41
2024-04-06T05:55:22.367Z,13.34
2024-04-06T05:56:22.373Z,13.28
2024-04-06T05:57:22.376Z,13.23
2024-04-06T05:58:22.345Z,13.20
2024-04-06T05:59:22.326Z,13.20
2024-04-06T06:00:22.363Z,13.23
2024-04-06T06:01:22.298Z,13.29
2024-04-06T06:02:22.297Z,13.36
2024-04-06T06:03:22.314Z,13.45
2024-04-06T06:04:22.278Z,13.54
2024-04-06T06:05:22.276Z,13.63
2024-04-06T06:06:22.263Z,13.74
2024-04-06T06:07:22.262Z,13.85
2024-04-06T06:08:22.266Z,13.95
2024-04-06T06:09:22.250Z,14.05
2024-04-06T06:10:22.226Z,14.13
2024-04-06T06:11:22.220Z,14.19
2024-04-06T06:12:22.181Z,14.24
2024-04-06T06:13:22.167Z,14.31
2024-04-06T06:14:23.742Z,14.39
2024-04-06T06:15:22.158Z,14.45
2024-04-06T06:16:22.144Z,14.51
2024-04-06T06:17:22.142Z,14.57
2024-04-06T06:18:22.133Z,14.62
2024-04-06T06:19:22.170Z,14.67
2024-04-06T06:20:22.114Z,14.73
2024-04-06T06:21:22.072Z,14.79
2024-04-06T06:22:22.061Z,14.88
2024-04-06T06:23:22.077Z,14.97
2024-04-06T06:24:22.052Z,15.04
2024-04-06T06:25:22.130Z,15.11
2024-04-06T06:26:22.036Z,15.19
2024-04-06T06:27:22.019Z,15.29
2024-04-06T06:28:22.021Z,15.37
2024-04-06T06:29:22.008Z,15.44
2024-04-06T06:30:22.019Z,15.47
2024-04-06T06:31:22.017Z,15.48
2024-04-06T06:32:21.982Z,15.47
2024-04-06T06:33:22.054Z,15.42
2024-04-06T06:34:22.006Z,15.34
2024-04-06T06:35:21.957Z,15.26
2024-04-06T06:38:21.937Z,15.28
2024-04-06T06:41:21.871Z,15.37
2024-04-06T06:42:21.843Z,15.42
2024-04-06T06:43:21.867Z,15.50
2024-04-06T06:44:21.818Z,15.55
2024-04-06T06:45:21.854Z,15.56
2024-04-06T06:46:21.830Z,15.58
2024-04-06T06:47:21.790Z,15.60
2024-04-06T06:48:21.795Z,15.61
2024-04-06T06:49:21.780Z,15.62
2024-04-06T06:50:21.798Z,15.64
2024-04-06T06:51:21.769Z,15.69
2024-04-06T06:52:21.770Z,15.76
2024-04-06T06:53:21.767Z,15.83
2024-04-06T06:54:21.732Z,15.89
2024-04-06T06:55:21.712Z,15.96
2024-04-06T06:56:21.735Z,16.02
2024-04-06T06:57:21.691Z,16.08
2024-04-06T06:58:21.650Z,16.15
2024-04-06T06:59:21.700Z,16.23
2024-04-06T07:00:21.666Z,16.29
2024-04-06T07:01:21.631Z,16.36
2024-04-06T07:02:21.672Z,16.47
2024-04-06T07:03:21.630Z,16.62
2024-04-06T07:04:21.618Z,16.78
2024-04-06T07:05:21.592Z,16.95
2024-04-06T07:07:21.562Z,17.28
2024-04-06T07:08:21.619Z,17.42
2024-04-06T07:09:21.563Z,17.56
2024-04-06T07:10:21.555Z,17.68
2024-04-06T07:11:21.581Z,17.81
2024-04-06T07:12:21.527Z,17.93
2024-04-06T07:13:21.517Z,18.03
2024-04-06T07:14:21.526Z,18.11
2024-04-06T07:15:21.491Z,18.14
2024-04-06T07:16:21.468Z,18.18
2024-04-06T07:17:23.558Z,18.24
2024-04-06T07:18:21.468Z,18.30
2024-04-06T07:19:21.450Z,18.36
2024-04-06T07:20:21.458Z,18.39
2024-04-06T07:21:21.461Z,18.41
2024-04-06T07:22:21.443Z,18.41
2024-04-06T07:23:21.401Z,18.41
2024-04-06T07:24:21.381Z,18.41
2024-04-06T07:25:21.387Z,18.43
2024-04-06T07:26:21.394Z,18.48
2024-04-06T07:27:21.346Z,18.54
2024-04-06T07:28:21.337Z,18.61
2024-04-06T07:29:21.329Z,18.69
2024-04-06T07:30:21.305Z,18.73
2024-04-06T07:31:21.306Z,18.75
2024-04-06T07:32:21.337Z,18.75
2024-04-06T07:33:21.289Z,18.78
2024-04-06T07:34:21.296Z,18.81
2024-04-06T07:35:21.256Z,18.82
2024-04-06T07:36:21.266Z,18.82
2024-04-06T07:37:21.291Z,18.80
2024-04-06T07:38:21.244Z,18.78
2024-04-06T07:39:21.241Z,18.77
2024-04-06T07:40:24.012Z,18.81
2024-04-06T07:41:21.216Z,18.86
2024-04-06T07:42:21.198Z,18.92
2024-04-06T07:43:21.224Z,18.99
2024-04-06T07:44:21.195Z,19.05
2024-04-06T07:45:21.172Z,19.05
2024-04-06T07:46:21.143Z,19.00
2024-04-06T07:47:21.129Z,18.98
2024-04-06T07:48:21.116Z,19.01
2024-04-06T07:49:21.164Z,19.08
2024-04-06T07:50:21.109Z,19.16
2024-04-06T07:51:21.103Z,19.20
2024-04-06T07:52:21.082Z,19.21
2024-04-06T07:53:21.067Z,19.19
2024-04-06T07:54:21.077Z,19.15
2024-04-06T07:55:21.055Z,19.12
2024-04-06T07:56:21.046Z,19.11
2024-04-06T07:57:21.020Z,19.14
2024-04-06T07:58:21.033Z,19.22
2024-04-06T07:59:21.035Z,19.31
2024-04-06T08:00:21.016Z,19.41
2024-04-06T08:01:20.997Z,19.47
2024-04-06T08:02:20.981Z,19.48
2024-04-06T08:03:20.997Z,19.47
2024-04-06T08:04:21.075Z,19.46
2024-04-06T08:05:20.982Z,19.43
2024-04-06T08:06:20.961Z,19.39
2024-04-06T08:07:20.945Z,19.38
2024-04-06T08:08:20.948Z,19.43
2024-04-06T08:09:20.910Z,19.54
2024-04-06T08:10:20.918Z,19.68
2024-04-06T08:11:20.893Z,19.82
2024-04-06T08:12:20.898Z,19.97
2024-04-06T08:13:20.858Z,20.12
2024-04-06T08:14:25.246Z,20.27
2024-04-06T08:15:20.841Z,20.45
2024-04-06T08:16:20.867Z,20.63
2024-04-06T08:17:20.810Z,20.78
2024-04-06T08:18:20.805Z,20.91
2024-04-06T08:19:20.785Z,21.02
2024-04-06T08:20:20.781Z,21.11
2024-04-06T08:21:20.778Z,21.21
2024-04-06T08:22:20.801Z,21.33
2024-04-06T08:23:20.751Z,21.46
2024-04-06T08:24:20.737Z,21.55
2024-04-06T08:25:20.726Z,21.60
2024-04-06T08:26:20.751Z,21.62
2024-04-06T08:27:20.705Z,21.62
2024-04-06T08:28:20.750Z,21.65
2024-04-06T08:29:20.699Z,21.71
2024-04-06T08:30:20.686Z,21.80
2024-04-06T08:31:20.667Z,21.92
2024-04-06T08:32:20.640Z,22.01
2024-04-06T08:33:20.637Z,22.09
2024-04-06T08:34:20.688Z,22.19
2024-04-06T08:35:20.626Z,22.27
2024-04-06T08:36:20.632Z,22.39
2024-04-06T08:37:20.596Z,22.53
2024-04-06T08:38:23.649Z,22.69
2024-04-06T08:39:20.598Z,22.85
2024-04-06T08:40:20.596Z,23.03
2024-04-06T08:41:20.547Z,23.19
2024-04-06T08:42:20.547Z,23.30
2024-04-06T08:43:20.540Z,23.40
2024-04-06T08:44:23.016Z,23.45
2024-04-06T08:45:20.519Z,23.46
2024-04-06T08:46:20.532Z,23.46
2024-04-06T08:47:20.511Z,23.44
2024-04-06T08:48:20.497Z,23.39
2024-04-06T08:49:20.477Z,23.28
2024-04-06T08:50:23.176Z,23.14
2024-04-06T08:51:20.468Z,23.04
2024-04-06T08:52:20.466Z,23.00
2024-04-06T08:53:20.427Z,22.95
2024-04-06T08:54:20.437Z,22.91
2024-04-06T08:55:20.408Z,22.89
2024-04-06T08:56:20.395Z,22.89
2024-04-06T08:57:20.413Z,22.93
2024-04-06T08:58:20.370Z,23.02
2024-04-06T08:59:20.357Z,23.13
2024-04-06T09:00:20.345Z,23.26
2024-04-06T09:01:20.332Z,23.43
2024-04-06T09:02:22.429Z,23.62
2024-04-06T09:03:20.345Z,23.81
2024-04-06T09:04:20.304Z,23.98
2024-04-06T09:05:20.305Z,24.01
2024-04-06T09:06:20.305Z,23.87
2024-04-06T09:07:20.286Z,23.70
2024-04-06T09:08:22.354Z,23.54
2024-04-06T09:09:20.296Z,23.46
2024-04-06T09:10:20.237Z,23.50
2024-04-06T09:11:20.230Z,23.59
2024-04-06T09:12:20.250Z,23.73
2024-04-06T09:13:20.220Z,23.91
2024-04-06T09:14:22.424Z,24.10
2024-04-06T09:15:20.234Z,24.22
2024-04-06T09:16:20.175Z,24.24
2024-04-06T09:17:20.180Z,24.16
2024-04-06T09:18:20.207Z,24.03
2024-04-06T09:19:20.161Z,23.95
2024-04-06T09:20:20.191Z,24.00
2024-04-06T09:21:20.126Z,24.11
2024-04-06T09:22:20.110Z,24.23
2024-04-06T09:23:20.106Z,24.36
2024-04-06T09:24:20.124Z,24.48
2024-04-06T09:25:20.115Z,24.58
2024-04-06T09:26:21.432Z,24.63
2024-04-06T09:27:20.071Z,24.62
2024-04-06T09:28:20.057Z,24.62
2024-04-06T09:29:20.059Z,24.67
2024-04-06T09:30:20.035Z,24.76
2024-04-06T09:31:20.067Z,24.83
2024-04-06T09:32:21.858Z,24.83
2024-04-06T09:33:19.990Z,24.81
2024-04-06T09:34:20.003Z,24.77
2024-04-06T09:35:19.980Z,24.75
2024-04-06T09:36:19.995Z,24.79
2024-04-06T09:37:20.020Z,24.89
2024-04-06T09:38:21.891Z,24.93
2024-04-06T09:39:19.956Z,24.80
2024-04-06T09:40:19.985Z,24.54
2024-04-06T09:41:19.938Z,24.34
2024-04-06T09:42:19.924Z,24.32
2024-04-06T09:43:19.946Z,24.37
2024-04-06T09:44:22.313Z,24.49
2024-04-06T09:45:19.899Z,24.66
2024-04-06T09:46:19.927Z,24.86
2024-04-06T09:47:19.887Z,25.07
2024-04-06T09:48:19.882Z,25.25
2024-04-06T09:49:19.958Z,25.41
2024-04-06T09:50:21.901Z,25.58
2024-04-06T09:51:19.864Z,25.71
2024-04-06T09:52:19.905Z,25.75
2024-04-06T09:53:19.823Z,25.77
2024-04-06T09:54:19.851Z,25.71
2024-04-06T09:55:19.857Z,25.55
2024-04-06T09:56:21.810Z,25.36
2024-04-06T09:57:19.817Z,25.25
2024-04-06T09:58:19.784Z,25.28
2024-04-06T09:59:19.737Z,25.43
2024-04-06T10:00:19.817Z,25.67
2024-04-06T10:01:19.866Z,25.94
2024-04-06T10:02:20.870Z,26.21
2024-04-06T10:03:19.698Z,26.47
2024-04-06T10:04:19.698Z,26.70
2024-04-06T10:05:19.677Z,26.87
2024-04-06T10:06:19.736Z,26.96
2024-04-06T10:07:19.701Z,27.03
2024-04-06T10:08:21.286Z,27.02
2024-04-06T10:09:19.651Z,26.97
2024-04-06T10:10:19.633Z,26.95
2024-04-06T10:11:19.693Z,26.93
2024-04-06T10:12:19.597Z,26.79
2024-04-06T10:13:19.660Z,26.66
2024-04-06T10:14:19.588Z,26.59
2024-04-06T10:15:19.571Z,26.43
2024-04-06T10:16:19.588Z,26.13
2024-04-06T10:17:19.554Z,25.84
2024-04-06T10:18:19.553Z,25.66
2024-04-06T10:19:19.594Z,25.59
2024-04-06T10:20:19.521Z,25.65
2024-04-06T10:21:19.526Z,25.81
2024-04-06T10:22:19.512Z,26.05
2024-04-06T10:23:19.531Z,26.33
2024-04-06T10:24:19.498Z,26.58
2024-04-06T10:25:19.571Z,26.79
2024-04-06T10:26:19.463Z,26.99
2024-04-06T10:27:19.460Z,27.08
2024-04-06T10:28:19.459Z,27.00
2024-04-06T10:29:19.431Z,26.86
2024-04-06T10:30:19.434Z,26.64
2024-04-06T10:31:22.289Z,26.40
2024-04-06T10:32:19.404Z,26.25
2024-04-06T10:33:19.403Z,26.11
2024-04-06T10:34:19.415Z,25.95
2024-04-06T10:35:19.392Z,25.90
2024-04-06T10:36:19.357Z,25.97
2024-04-06T10:37:19.467Z,26.08
2024-04-06T10:38:19.329Z,26.22
2024-04-06T10:39:19.326Z,26.34
2024-04-06T10:40:19.327Z,26.43
2024-04-06T10:41:19.316Z,26.46
2024-04-06T10:42:19.332Z,26.53
2024-04-06T10:43:19.332Z,26.67
2024-04-06T10:44:19.282Z,26.82
2024-04-06T10:45:19.269Z,26.94
2024-04-06T10:46:19.324Z,27.01
2024-04-06T10:47:19.238Z,26.94
2024-04-06T10:48:19.268Z,26.83
2024-04-06T10:49:19.277Z,26.81
2024-04-06T10:50:19.237Z,26.87
2024-04-06T10:51:19.218Z,27.00
2024-04-06T10:52:19.252Z,27.14
2024-04-06T10:53:19.190Z,27.25
2024-04-06T10:54:19.213Z,27.32
2024-04-06T10:55:19.235Z,27.24
2024-04-06T10:56:19.163Z,27.17
2024-04-06T10:57:19.160Z,27.19
2024-04-06T10:58:19.153Z,27.28
2024-04-06T10:59:19.177Z,27.44
2024-04-06T11:00:19.119Z,27.61
2024-04-06T11:01:19.147Z,27.81
2024-04-06T11:02:19.096Z,28.09
2024-04-06T11:03:19.102Z,28.39
2024-04-06T11:04:19.147Z,28.68
2024-04-06T11:05:19.078Z,28.92
2024-04-06T11:06:19.061Z,29.01
2024-04-06T11:07:19.092Z,29.02
2024-04-06T11:08:19.036Z,29.03
2024-04-06T11:09:19.048Z,28.90
2024-04-06T11:10:19.129Z,28.71
2024-04-06T11:11:19.021Z,28.60
2024-04-06T11:12:19.018Z,28.57
2024-04-06T11:13:19.055Z,28.56
2024-04-06T11:14:18.987Z,28.45
2024-04-06T11:15:18.976Z,28.23
2024-04-06T11:16:19.116Z,28.09
2024-04-06T11:17:18.965Z,28.08
2024-04-06T11:18:18.945Z,28.14
2024-04-06T11:19:18.950Z,28.26
2024-04-06T11:20:18.921Z,28.43
2024-04-06T11:21:18.944Z,28.62
2024-04-06T11:22:18.936Z,28.84
2024-04-06T11:23:18.921Z,29.10
2024-04-06T11:24:18.900Z,29.36
2024-04-06T11:25:18.962Z,29.52
2024-04-06T11:26:18.863Z,29.45
2024-04-06T11:27:18.897Z,29.02
2024-04-06T11:28:18.893Z,28.49
2024-04-06T11:29:18.839Z,28.16
2024-04-06T11:30:18.842Z,27.98
2024-04-06T11:31:18.923Z,27.87
2024-04-06T11:32:18.801Z,27.86
2024-04-06T11:33:18.835Z,27.90
2024-04-06T11:34:18.852Z,27.99
2024-04-06T11:35:18.783Z,28.13
2024-04-06T11:36:18.762Z,28.28
2024-04-06T11:37:18.806Z,28.39
2024-04-06T11:38:18.787Z,28.39
2024-04-06T11:39:18.748Z,28.21
2024-04-06T11:40:18.750Z,28.05
2024-04-06T11:41:18.722Z,28.00
2024-04-06T11:42:18.714Z,27.93
2024-04-06T11:43:18.745Z,27.90
2024-04-06T11:44:18.736Z,27.94
2024-04-06T11:45:18.713Z,28.06
2024-04-06T11:46:18.675Z,28.26
2024-04-06T11:47:18.652Z,28.45
2024-04-06T11:48:18.656Z,28.41
2024-04-06T11:49:18.657Z,28.11
2024-04-06T11:50:18.672Z,27.77
2024-04-06T11:51:18.629Z,27.58
2024-04-06T11:52:18.645Z,27.55
2024-04-06T11:53:18.591Z,27.65
2024-04-06T11:54:18.795Z,27.81
2024-04-06T11:55:18.723Z,28.01
2024-04-06T11:56:18.596Z,28.23
2024-04-06T11:57:18.551Z,28.45
2024-04-06T11:58:18.541Z,28.64
2024-04-06T11:59:18.552Z,28.76
2024-04-06T12:00:20.993Z,28.81
2024-04-06T12:01:18.570Z,28.68
2024-04-06T12:02:18.573Z,28.35
2024-04-06T12:03:18.499Z,28.05
2024-04-06T12:04:18.489Z,27.92
2024-04-06T12:05:18.486Z,27.93
2024-04-06T12:06:18.464Z,28.05
2024-04-06T12:07:18.516Z,28.25
2024-04-06T12:08:18.492Z,28.49
2024-04-06T12:09:18.430Z,28.74
2024-04-06T12:10:18.494Z,28.94
2024-04-06T12:11:18.420Z,29.06
2024-04-06T12:12:18.411Z,29.14
2024-04-06T12:13:18.429Z,29.19
2024-04-06T12:14:18.377Z,29.25
2024-04-06T12:15:18.374Z,29.27
2024-04-06T12:16:18.403Z,29.31
2024-04-06T12:17:18.343Z,29.39
2024-04-06T12:18:18.399Z,29.47
2024-04-06T12:19:18.344Z,29.54
2024-04-06T12:20:18.365Z,29.61
2024-04-06T12:21:18.314Z,29.68
2024-04-06T12:22:18.339Z,29.71
2024-04-06T12:23:18.291Z,29.73
2024-04-06T12:24:18.317Z,29.79
2024-04-06T12:25:18.317Z,29.85
2024-04-06T12:26:18.261Z,29.88
2024-04-06T12:27:18.277Z,29.86
2024-04-06T12:28:18.267Z,29.83
2024-04-06T12:29:18.261Z,29.88
2024-04-06T12:30:18.228Z,30.01
2024-04-06T12:31:18.290Z,30.14
2024-04-06T12:32:18.207Z,30.23
2024-04-06T12:33:18.213Z,30.27
2024-04-06T12:34:18.289Z,30.30
2024-04-06T12:35:18.213Z,30.36
2024-04-06T12:36:18.247Z,30.46
2024-04-06T12:37:18.154Z,30.50
2024-04-06T12:38:18.174Z,30.35
2024-04-06T12:39:18.138Z,30.13
2024-04-06T12:40:18.142Z,29.83
2024-04-06T12:41:18.127Z,29.45
2024-04-06T12:42:18.150Z,29.11
2024-04-06T12:43:18.137Z,28.87
2024-04-06T12:44:18.091Z,28.74
2024-04-06T12:45:18.104Z,28.69
2024-04-06T12:46:18.112Z,28.70
2024-04-06T12:47:18.107Z,28.68
2024-04-06T12:48:18.046Z,28.69
2024-04-06T12:49:18.061Z,28.73
2024-04-06T12:50:18.047Z,28.76
2024-04-06T12:51:18.013Z,28.80
2024-04-06T12:52:18.023Z,28.86
2024-04-06T12:53:18.030Z,28.95
2024-04-06T12:54:17.986Z,29.06
2024-04-06T12:55:17.998Z,29.21
2024-04-06T12:56:17.956Z,29.35
2024-04-06T12:57:17.940Z,29.49
2024-04-06T12:58:17.994Z,29.58